sensor_id;sensor_type;location;lat;lon;timestamp;P1;durP1;ratioP1;P2;durP2;ratioP2
7539;SDS011;3811;49.006;12.076;2022-09-21T00:02:16;3.00;;;2.40;;
7539;SDS011;3811;49.006;12.076;2022-09-21T00:04:45;2.57;;;2.37;;
7539;SDS011;3811;49.006;12.076;2022-09-21T00:07:14;3.07;;;2.30;;
7539;SDS011;3811;49.006;12.076;2022-09-21T00:09:41;4.63;;;2.40;;
7539;SDS011;3811;49.006;12.076;2022-09-21T00:12:09;4.63;;;2.63;;
7539;SDS011;3811;49.006;12.076;2022-09-21T00:14:36;3.93;;;2.80;;
7539;SDS011;3811;49.006;12.076;2022-09-21T00:17:04;2.70;;;2.50;;
7539;SDS011;3811;49.006;12.076;2022-09-21T00:19:33;4.00;;;2.37;;
7539;SDS011;3811;49.006;12.076;2022-09-21T00:22:02;2.60;;;2.40;;
7539;SDS011;3811;49.006;12.076;2022-09-21T00:24:29;2.93;;;2.37;;
7539;SDS011;3811;49.006;12.076;2022-09-21T00:26:56;2.80;;;2.60;;
7539;SDS011;3811;49.006;12.076;2022-09-21T00:29:24;4.33;;;2.70;;
7539;SDS011;3811;49.006;12.076;2022-09-21T00:31:51;5.27;;;2.87;;
7539;SDS011;3811;49.006;12.076;2022-09-21T00:34:32;4.20;;;2.70;;
7539;SDS011;3811;49.006;12.076;2022-09-21T00:37:00;2.47;;;2.27;;
7539;SDS011;3811;49.006;12.076;2022-09-21T00:39:28;3.07;;;2.33;;
7539;SDS011;3811;49.006;12.076;2022-09-21T00:41:56;4.30;;;3.00;;
7539;SDS011;3811;49.006;12.076;2022-09-21T00:44:31;2.73;;;2.30;;
7539;SDS011;3811;49.006;12.076;2022-09-21T00:47:00;2.17;;;1.97;;
7539;SDS011;3811;49.006;12.076;2022-09-21T00:49:28;3.17;;;2.30;;
7539;SDS011;3811;49.006;12.076;2022-09-21T00:51:56;2.10;;;2.00;;
7539;SDS011;3811;49.006;12.076;2022-09-21T00:54:27;5.40;;;2.90;;
7539;SDS011;3811;49.006;12.076;2022-09-21T00:56:59;3.73;;;2.47;;
7539;SDS011;3811;49.006;12.076;2022-09-21T00:59:27;3.87;;;2.67;;
7539;SDS011;3811;49.006;12.076;2022-09-21T01:01:55;2.37;;;2.20;;
7539;SDS011;3811;49.006;12.076;2022-09-21T01:04:22;2.43;;;2.23;;
7539;SDS011;3811;49.006;12.076;2022-09-21T01:06:50;2.50;;;2.30;;
7539;SDS011;3811;49.006;12.076;2022-09-21T01:09:18;4.17;;;2.50;;
7539;SDS011;3811;49.006;12.076;2022-09-21T01:11:49;2.60;;;2.27;;
7539;SDS011;3811;49.006;12.076;2022-09-21T01:14:32;2.17;;;2.07;;
7539;SDS011;3811;49.006;12.076;2022-09-21T01:17:03;3.30;;;2.23;;
7539;SDS011;3811;49.006;12.076;2022-09-21T01:19:51;2.87;;;2.63;;
7539;SDS011;3811;49.006;12.076;2022-09-21T01:22:43;2.13;;;2.03;;
7539;SDS011;3811;49.006;12.076;2022-09-21T01:25:24;3.10;;;2.37;;
7539;SDS011;3811;49.006;12.076;2022-09-21T01:28:07;4.73;;;2.47;;
7539;SDS011;3811;49.006;12.076;2022-09-21T01:30:39;2.43;;;2.23;;
7539;SDS011;3811;49.006;12.076;2022-09-21T01:33:09;2.00;;;1.90;;
7539;SDS011;3811;49.006;12.076;2022-09-21T01:35:41;3.10;;;2.53;;
7539;SDS011;3811;49.006;12.076;2022-09-21T01:38:11;3.03;;;2.50;;
7539;SDS011;3811;49.006;12.076;2022-09-21T01:40:40;3.20;;;2.60;;
7539;SDS011;3811;49.006;12.076;2022-09-21T01:43:11;3.13;;;2.70;;
7539;SDS011;3811;49.006;12.076;2022-09-21T01:45:42;3.03;;;2.73;;
7539;SDS011;3811;49.006;12.076;2022-09-21T01:48:11;5.20;;;2.40;;
7539;SDS011;3811;49.006;12.076;2022-09-21T01:50:40;4.33;;;2.60;;
7539;SDS011;3811;49.006;12.076;2022-09-21T01:53:10;2.30;;;2.10;;
7539;SDS011;3811;49.006;12.076;2022-09-21T01:55:43;3.93;;;2.63;;
7539;SDS011;3811;49.006;12.076;2022-09-21T01:58:15;2.37;;;2.17;;
7539;SDS011;3811;49.006;12.076;2022-09-21T02:00:53;2.70;;;2.50;;
7539;SDS011;3811;49.006;12.076;2022-09-21T02:03:24;3.27;;;2.50;;
7539;SDS011;3811;49.006;12.076;2022-09-21T02:05:55;2.20;;;2.10;;
7539;SDS011;3811;49.006;12.076;2022-09-21T02:08:23;2.30;;;2.20;;
7539;SDS011;3811;49.006;12.076;2022-09-21T02:10:52;2.97;;;2.03;;
7539;SDS011;3811;49.006;12.076;2022-09-21T02:13:20;6.03;;;2.10;;
7539;SDS011;3811;49.006;12.076;2022-09-21T02:15:54;2.73;;;2.13;;
7539;SDS011;3811;49.006;12.076;2022-09-21T02:18:29;2.30;;;2.07;;
7539;SDS011;3811;49.006;12.076;2022-09-21T02:21:07;4.63;;;2.47;;
7539;SDS011;3811;49.006;12.076;2022-09-21T02:23:41;2.53;;;2.33;;
7539;SDS011;3811;49.006;12.076;2022-09-21T02:26:10;2.40;;;2.20;;
7539;SDS011;3811;49.006;12.076;2022-09-21T02:28:41;2.40;;;2.30;;
7539;SDS011;3811;49.006;12.076;2022-09-21T02:31:12;2.97;;;2.60;;
7539;SDS011;3811;49.006;12.076;2022-09-21T02:33:44;2.17;;;2.00;;
7539;SDS011;3811;49.006;12.076;2022-09-21T02:36:16;2.77;;;2.30;;
7539;SDS011;3811;49.006;12.076;2022-09-21T02:38:46;2.67;;;2.30;;
7539;SDS011;3811;49.006;12.076;2022-09-21T02:41:18;2.90;;;2.53;;
7539;SDS011;3811;49.006;12.076;2022-09-21T02:43:51;2.40;;;2.20;;
7539;SDS011;3811;49.006;12.076;2022-09-21T02:46:26;2.73;;;1.90;;
7539;SDS011;3811;49.006;12.076;2022-09-21T02:48:56;2.93;;;2.60;;
7539;SDS011;3811;49.006;12.076;2022-09-21T02:51:28;2.57;;;2.17;;
7539;SDS011;3811;49.006;12.076;2022-09-21T02:54:00;2.60;;;2.40;;
7539;SDS011;3811;49.006;12.076;2022-09-21T02:56:29;3.17;;;2.67;;
7539;SDS011;3811;49.006;12.076;2022-09-21T02:58:58;2.67;;;2.47;;
7539;SDS011;3811;49.006;12.076;2022-09-21T03:01:30;2.70;;;2.50;;
7539;SDS011;3811;49.006;12.076;2022-09-21T03:03:57;7.43;;;2.63;;
7539;SDS011;3811;49.006;12.076;2022-09-21T03:06:25;2.40;;;2.20;;
7539;SDS011;3811;49.006;12.076;2022-09-21T03:08:52;3.00;;;2.70;;
7539;SDS011;3811;49.006;12.076;2022-09-21T03:11:21;2.23;;;2.03;;
7539;SDS011;3811;49.006;12.076;2022-09-21T03:13:48;2.30;;;2.20;;
7539;SDS011;3811;49.006;12.076;2022-09-21T03:16:16;2.73;;;2.53;;
7539;SDS011;3811;49.006;12.076;2022-09-21T03:21:29;2.57;;;2.37;;
7539;SDS011;3811;49.006;12.076;2022-09-21T03:23:56;7.07;;;3.10;;
7539;SDS011;3811;49.006;12.076;2022-09-21T03:26:24;2.57;;;2.37;;
7539;SDS011;3811;49.006;12.076;2022-09-21T03:28:51;3.23;;;2.57;;
7539;SDS011;3811;49.006;12.076;2022-09-21T03:31:18;3.93;;;2.60;;
7539;SDS011;3811;49.006;12.076;2022-09-21T03:33:46;2.60;;;2.40;;
7539;SDS011;3811;49.006;12.076;2022-09-21T03:36:14;2.30;;;2.10;;
7539;SDS011;3811;49.006;12.076;2022-09-21T03:38:42;2.47;;;2.33;;
7539;SDS011;3811;49.006;12.076;2022-09-21T03:41:10;2.53;;;2.30;;
7539;SDS011;3811;49.006;12.076;2022-09-21T03:43:39;2.20;;;2.10;;
7539;SDS011;3811;49.006;12.076;2022-09-21T03:46:06;4.63;;;2.70;;
7539;SDS011;3811;49.006;12.076;2022-09-21T03:48:33;5.07;;;2.63;;
7539;SDS011;3811;49.006;12.076;2022-09-21T03:51:01;3.23;;;2.77;;
7539;SDS011;3811;49.006;12.076;2022-09-21T03:53:28;3.17;;;2.70;;
7539;SDS011;3811;49.006;12.076;2022-09-21T03:55:57;2.60;;;2.40;;
7539;SDS011;3811;49.006;12.076;2022-09-21T03:58:24;2.43;;;2.07;;
7539;SDS011;3811;49.006;12.076;2022-09-21T04:00:52;3.30;;;2.37;;
7539;SDS011;3811;49.006;12.076;2022-09-21T04:03:19;2.67;;;2.47;;
7539;SDS011;3811;49.006;12.076;2022-09-21T04:05:47;2.50;;;2.30;;
7539;SDS011;3811;49.006;12.076;2022-09-21T04:08:14;3.17;;;2.87;;
7539;SDS011;3811;49.006;12.076;2022-09-21T04:10:41;3.17;;;2.77;;
7539;SDS011;3811;49.006;12.076;2022-09-21T04:13:10;2.80;;;2.60;;
7539;SDS011;3811;49.006;12.076;2022-09-21T04:15:37;3.37;;;2.73;;
7539;SDS011;3811;49.006;12.076;2022-09-21T04:18:05;4.90;;;3.10;;
7539;SDS011;3811;49.006;12.076;2022-09-21T04:20:32;3.37;;;3.10;;
7539;SDS011;3811;49.006;12.076;2022-09-21T04:23:00;2.73;;;2.53;;
7539;SDS011;3811;49.006;12.076;2022-09-21T04:25:27;2.80;;;2.60;;
7539;SDS011;3811;49.006;12.076;2022-09-21T04:27:54;3.67;;;2.50;;
7539;SDS011;3811;49.006;12.076;2022-09-21T04:30:23;2.07;;;1.93;;
7539;SDS011;3811;49.006;12.076;2022-09-21T04:32:50;2.80;;;2.50;;
7539;SDS011;3811;49.006;12.076;2022-09-21T04:35:18;2.83;;;2.63;;
7539;SDS011;3811;49.006;12.076;2022-09-21T04:37:45;2.27;;;2.17;;
7539;SDS011;3811;49.006;12.076;2022-09-21T04:40:12;2.73;;;2.53;;
7539;SDS011;3811;49.006;12.076;2022-09-21T04:42:39;2.30;;;2.13;;
7539;SDS011;3811;49.006;12.076;2022-09-21T04:45:07;3.67;;;1.97;;
7539;SDS011;3811;49.006;12.076;2022-09-21T04:47:36;2.20;;;2.10;;
7539;SDS011;3811;49.006;12.076;2022-09-21T04:50:04;2.87;;;2.37;;
7539;SDS011;3811;49.006;12.076;2022-09-21T04:52:31;2.23;;;2.07;;
7539;SDS011;3811;49.006;12.076;2022-09-21T04:54:59;4.43;;;2.17;;
7539;SDS011;3811;49.006;12.076;2022-09-21T04:57:26;3.10;;;2.40;;
7539;SDS011;3811;49.006;12.076;2022-09-21T04:59:53;2.73;;;2.53;;
7539;SDS011;3811;49.006;12.076;2022-09-21T05:02:21;3.53;;;3.00;;
7539;SDS011;3811;49.006;12.076;2022-09-21T05:04:49;2.60;;;2.40;;
7539;SDS011;3811;49.006;12.076;2022-09-21T05:07:16;4.47;;;2.60;;
7539;SDS011;3811;49.006;12.076;2022-09-21T05:09:44;3.03;;;2.73;;
7539;SDS011;3811;49.006;12.076;2022-09-21T05:12:29;2.63;;;2.43;;
7539;SDS011;3811;49.006;12.076;2022-09-21T05:14:57;3.87;;;2.83;;
7539;SDS011;3811;49.006;12.076;2022-09-21T05:17:25;2.53;;;2.33;;
7539;SDS011;3811;49.006;12.076;2022-09-21T05:19:53;3.70;;;2.40;;
7539;SDS011;3811;49.006;12.076;2022-09-21T05:22:20;6.33;;;2.77;;
7539;SDS011;3811;49.006;12.076;2022-09-21T05:24:48;2.60;;;2.37;;
7539;SDS011;3811;49.006;12.076;2022-09-21T05:27:16;4.93;;;2.47;;
7539;SDS011;3811;49.006;12.076;2022-09-21T05:29:43;4.60;;;2.53;;
7539;SDS011;3811;49.006;12.076;2022-09-21T05:32:12;3.03;;;2.77;;
7539;SDS011;3811;49.006;12.076;2022-09-21T05:34:46;2.90;;;2.60;;
7539;SDS011;3811;49.006;12.076;2022-09-21T05:37:32;4.90;;;2.80;;
7539;SDS011;3811;49.006;12.076;2022-09-21T05:40:07;3.53;;;3.10;;
7539;SDS011;3811;49.006;12.076;2022-09-21T05:42:36;5.27;;;3.23;;
7539;SDS011;3811;49.006;12.076;2022-09-21T05:45:04;4.70;;;3.40;;
7539;SDS011;3811;49.006;12.076;2022-09-21T05:47:35;3.83;;;3.43;;
7539;SDS011;3811;49.006;12.076;2022-09-21T05:50:05;3.13;;;2.77;;
7539;SDS011;3811;49.006;12.076;2022-09-21T05:52:48;5.00;;;4.20;;
7539;SDS011;3811;49.006;12.076;2022-09-21T05:55:30;8.53;;;6.83;;
7539;SDS011;3811;49.006;12.076;2022-09-21T05:58:09;4.33;;;3.93;;
7539;SDS011;3811;49.006;12.076;2022-09-21T06:00:46;7.43;;;6.10;;
7539;SDS011;3811;49.006;12.076;2022-09-21T06:03:26;8.30;;;5.47;;
7539;SDS011;3811;49.006;12.076;2022-09-21T06:05:54;5.53;;;4.10;;
7539;SDS011;3811;49.006;12.076;2022-09-21T06:08:24;3.97;;;3.67;;
7539;SDS011;3811;49.006;12.076;2022-09-21T06:10:51;4.37;;;3.97;;
7539;SDS011;3811;49.006;12.076;2022-09-21T06:13:19;4.03;;;3.03;;
7539;SDS011;3811;49.006;12.076;2022-09-21T06:15:46;6.17;;;4.40;;
7539;SDS011;3811;49.006;12.076;2022-09-21T06:18:13;5.97;;;3.67;;
7539;SDS011;3811;49.006;12.076;2022-09-21T06:20:40;4.83;;;2.93;;
7539;SDS011;3811;49.006;12.076;2022-09-21T06:23:08;5.20;;;3.30;;
7539;SDS011;3811;49.006;12.076;2022-09-21T06:25:37;3.53;;;3.23;;
7539;SDS011;3811;49.006;12.076;2022-09-21T06:28:05;7.77;;;3.80;;
7539;SDS011;3811;49.006;12.076;2022-09-21T06:33:09;4.10;;;3.20;;
7539;SDS011;3811;49.006;12.076;2022-09-21T06:35:36;5.17;;;4.53;;
7539;SDS011;3811;49.006;12.076;2022-09-21T06:38:04;3.97;;;3.67;;
7539;SDS011;3811;49.006;12.076;2022-09-21T06:40:34;6.73;;;3.60;;
7539;SDS011;3811;49.006;12.076;2022-09-21T06:43:03;8.90;;;5.87;;
7539;SDS011;3811;49.006;12.076;2022-09-21T06:45:31;4.50;;;3.87;;
7539;SDS011;3811;49.006;12.076;2022-09-21T06:47:59;4.83;;;4.03;;
7539;SDS011;3811;49.006;12.076;2022-09-21T06:50:26;4.37;;;3.27;;
7539;SDS011;3811;49.006;12.076;2022-09-21T06:52:53;4.97;;;3.53;;
7539;SDS011;3811;49.006;12.076;2022-09-21T06:55:20;4.80;;;3.87;;
7539;SDS011;3811;49.006;12.076;2022-09-21T06:57:48;4.70;;;4.13;;
7539;SDS011;3811;49.006;12.076;2022-09-21T07:00:17;4.90;;;4.00;;
7539;SDS011;3811;49.006;12.076;2022-09-21T07:02:44;5.93;;;4.23;;
7539;SDS011;3811;49.006;12.076;2022-09-21T07:05:12;5.40;;;4.50;;
7539;SDS011;3811;49.006;12.076;2022-09-21T07:07:39;4.77;;;3.60;;
7539;SDS011;3811;49.006;12.076;2022-09-21T07:10:25;5.97;;;3.67;;
7539;SDS011;3811;49.006;12.076;2022-09-21T07:12:52;5.83;;;3.90;;
7539;SDS011;3811;49.006;12.076;2022-09-21T07:15:21;4.03;;;3.60;;
7539;SDS011;3811;49.006;12.076;2022-09-21T07:17:48;4.20;;;3.63;;
7539;SDS011;3811;49.006;12.076;2022-09-21T07:20:15;3.90;;;3.60;;
7539;SDS011;3811;49.006;12.076;2022-09-21T07:22:42;5.10;;;4.60;;
7539;SDS011;3811;49.006;12.076;2022-09-21T07:25:09;4.07;;;3.47;;
7539;SDS011;3811;49.006;12.076;2022-09-21T07:27:37;4.40;;;4.00;;
7539;SDS011;3811;49.006;12.076;2022-09-21T07:30:04;5.33;;;3.43;;
7539;SDS011;3811;49.006;12.076;2022-09-21T07:32:34;4.03;;;3.63;;
7539;SDS011;3811;49.006;12.076;2022-09-21T07:35:01;4.50;;;3.87;;
7539;SDS011;3811;49.006;12.076;2022-09-21T07:37:30;3.93;;;3.60;;
7539;SDS011;3811;49.006;12.076;2022-09-21T07:39:57;4.00;;;3.60;;
7539;SDS011;3811;49.006;12.076;2022-09-21T07:42:26;3.70;;;3.40;;
7539;SDS011;3811;49.006;12.076;2022-09-21T07:45:00;4.57;;;4.07;;
7539;SDS011;3811;49.006;12.076;2022-09-21T07:47:27;4.57;;;4.07;;
7539;SDS011;3811;49.006;12.076;2022-09-21T07:49:56;4.33;;;3.93;;
7539;SDS011;3811;49.006;12.076;2022-09-21T07:52:24;14.07;;;9.27;;
7539;SDS011;3811;49.006;12.076;2022-09-21T07:54:51;18.23;;;10.60;;
7539;SDS011;3811;49.006;12.076;2022-09-21T07:57:28;4.67;;;4.13;;
7539;SDS011;3811;49.006;12.076;2022-09-21T08:00:13;8.93;;;4.10;;
7539;SDS011;3811;49.006;12.076;2022-09-21T08:02:40;4.73;;;3.93;;
7539;SDS011;3811;49.006;12.076;2022-09-21T08:05:09;4.07;;;3.73;;
7539;SDS011;3811;49.006;12.076;2022-09-21T08:07:41;5.10;;;3.77;;
7539;SDS011;3811;49.006;12.076;2022-09-21T08:10:08;3.53;;;3.23;;
7539;SDS011;3811;49.006;12.076;2022-09-21T08:12:36;4.80;;;4.27;;
7539;SDS011;3811;49.006;12.076;2022-09-21T08:15:03;4.53;;;4.13;;
7539;SDS011;3811;49.006;12.076;2022-09-21T08:17:32;3.80;;;3.50;;
7539;SDS011;3811;49.006;12.076;2022-09-21T08:19:59;4.63;;;4.23;;
7539;SDS011;3811;49.006;12.076;2022-09-21T08:22:27;5.53;;;4.50;;
7539;SDS011;3811;49.006;12.076;2022-09-21T08:24:54;4.30;;;3.90;;
7539;SDS011;3811;49.006;12.076;2022-09-21T08:27:21;4.83;;;4.20;;
7539;SDS011;3811;49.006;12.076;2022-09-21T08:29:49;4.20;;;3.80;;
7539;SDS011;3811;49.006;12.076;2022-09-21T08:32:17;4.17;;;3.77;;
7539;SDS011;3811;49.006;12.076;2022-09-21T08:34:44;3.80;;;3.50;;
7539;SDS011;3811;49.006;12.076;2022-09-21T08:37:11;3.63;;;3.33;;
7539;SDS011;3811;49.006;12.076;2022-09-21T08:39:41;5.30;;;3.70;;
7539;SDS011;3811;49.006;12.076;2022-09-21T08:42:13;4.23;;;3.83;;
7539;SDS011;3811;49.006;12.076;2022-09-21T08:44:59;3.90;;;3.47;;
7539;SDS011;3811;49.006;12.076;2022-09-21T08:47:34;3.90;;;3.60;;
7539;SDS011;3811;49.006;12.076;2022-09-21T08:50:04;4.57;;;3.70;;
7539;SDS011;3811;49.006;12.076;2022-09-21T08:52:47;4.87;;;3.30;;
7539;SDS011;3811;49.006;12.076;2022-09-21T08:55:19;4.03;;;3.60;;
7539;SDS011;3811;49.006;12.076;2022-09-21T08:57:48;3.83;;;3.40;;
7539;SDS011;3811;49.006;12.076;2022-09-21T09:00:16;3.37;;;3.10;;
7539;SDS011;3811;49.006;12.076;2022-09-21T09:02:49;4.13;;;3.73;;
7539;SDS011;3811;49.006;12.076;2022-09-21T09:05:43;4.87;;;3.53;;
7539;SDS011;3811;49.006;12.076;2022-09-21T09:11:19;4.43;;;3.23;;
7539;SDS011;3811;49.006;12.076;2022-09-21T09:14:19;3.63;;;3.33;;
7539;SDS011;3811;49.006;12.076;2022-09-21T09:17:00;5.30;;;3.93;;
7539;SDS011;3811;49.006;12.076;2022-09-21T09:19:49;6.53;;;3.90;;
7539;SDS011;3811;49.006;12.076;2022-09-21T09:22:26;4.87;;;3.63;;
7539;SDS011;3811;49.006;12.076;2022-09-21T09:24:59;4.17;;;3.57;;
7539;SDS011;3811;49.006;12.076;2022-09-21T09:27:31;4.27;;;3.07;;
7539;SDS011;3811;49.006;12.076;2022-09-21T09:30:02;3.33;;;3.03;;
7539;SDS011;3811;49.006;12.076;2022-09-21T09:32:32;3.70;;;3.40;;
7539;SDS011;3811;49.006;12.076;2022-09-21T09:35:14;6.53;;;3.23;;
7539;SDS011;3811;49.006;12.076;2022-09-21T09:37:47;3.93;;;3.40;;
7539;SDS011;3811;49.006;12.076;2022-09-21T09:40:16;4.03;;;3.00;;
7539;SDS011;3811;49.006;12.076;2022-09-21T09:42:56;3.20;;;3.00;;
7539;SDS011;3811;49.006;12.076;2022-09-21T09:45:39;3.63;;;3.17;;
7539;SDS011;3811;49.006;12.076;2022-09-21T09:48:23;3.20;;;3.00;;
7539;SDS011;3811;49.006;12.076;2022-09-21T09:53:43;3.50;;;3.07;;
7539;SDS011;3811;49.006;12.076;2022-09-21T09:56:10;3.40;;;3.10;;
7539;SDS011;3811;49.006;12.076;2022-09-21T09:58:42;4.70;;;3.33;;
7539;SDS011;3811;49.006;12.076;2022-09-21T10:04:06;4.50;;;3.40;;
7539;SDS011;3811;49.006;12.076;2022-09-21T10:06:34;4.47;;;3.60;;
7539;SDS011;3811;49.006;12.076;2022-09-21T10:11:50;3.20;;;3.00;;
7539;SDS011;3811;49.006;12.076;2022-09-21T10:14:33;3.10;;;2.87;;
7539;SDS011;3811;49.006;12.076;2022-09-21T10:17:03;3.80;;;3.50;;
7539;SDS011;3811;49.006;12.076;2022-09-21T10:19:32;3.33;;;3.03;;
7539;SDS011;3811;49.006;12.076;2022-09-21T10:22:00;3.30;;;3.00;;
7539;SDS011;3811;49.006;12.076;2022-09-21T10:24:30;3.80;;;3.50;;
7539;SDS011;3811;49.006;12.076;2022-09-21T10:27:04;3.53;;;3.23;;
7539;SDS011;3811;49.006;12.076;2022-09-21T10:29:40;3.00;;;2.80;;
7539;SDS011;3811;49.006;12.076;2022-09-21T10:32:18;4.17;;;3.03;;
7539;SDS011;3811;49.006;12.076;2022-09-21T10:35:08;9.87;;;3.10;;
7539;SDS011;3811;49.006;12.076;2022-09-21T10:37:40;3.67;;;3.00;;
7539;SDS011;3811;49.006;12.076;2022-09-21T10:40:21;3.60;;;2.90;;
7539;SDS011;3811;49.006;12.076;2022-09-21T10:42:50;2.90;;;2.63;;
7539;SDS011;3811;49.006;12.076;2022-09-21T10:45:23;2.83;;;2.43;;
7539;SDS011;3811;49.006;12.076;2022-09-21T10:47:53;3.57;;;2.50;;
7539;SDS011;3811;49.006;12.076;2022-09-21T10:50:26;4.13;;;2.20;;
7539;SDS011;3811;49.006;12.076;2022-09-21T10:52:55;2.83;;;2.13;;
7539;SDS011;3811;49.006;12.076;2022-09-21T10:55:25;2.27;;;2.13;;
7539;SDS011;3811;49.006;12.076;2022-09-21T10:57:54;1.90;;;1.80;;
7539;SDS011;3811;49.006;12.076;2022-09-21T11:00:29;2.83;;;2.20;;
7539;SDS011;3811;49.006;12.076;2022-09-21T11:03:01;1.97;;;1.87;;
7539;SDS011;3811;49.006;12.076;2022-09-21T11:05:53;2.97;;;2.33;;
7539;SDS011;3811;49.006;12.076;2022-09-21T11:08:22;2.00;;;1.90;;
7539;SDS011;3811;49.006;12.076;2022-09-21T11:11:01;2.20;;;2.00;;
7539;SDS011;3811;49.006;12.076;2022-09-21T11:13:35;2.67;;;2.47;;
7539;SDS011;3811;49.006;12.076;2022-09-21T11:16:11;1.70;;;1.60;;
7539;SDS011;3811;49.006;12.076;2022-09-21T11:18:43;2.17;;;1.80;;
7539;SDS011;3811;49.006;12.076;2022-09-21T11:21:18;1.80;;;1.70;;
7539;SDS011;3811;49.006;12.076;2022-09-21T11:23:55;1.70;;;1.60;;
7539;SDS011;3811;49.006;12.076;2022-09-21T11:26:29;1.63;;;1.53;;
7539;SDS011;3811;49.006;12.076;2022-09-21T11:29:01;1.40;;;1.40;;
7539;SDS011;3811;49.006;12.076;2022-09-21T11:31:39;1.83;;;1.73;;
7539;SDS011;3811;49.006;12.076;2022-09-21T11:34:35;2.30;;;1.60;;
7539;SDS011;3811;49.006;12.076;2022-09-21T11:37:25;1.90;;;1.80;;
7539;SDS011;3811;49.006;12.076;2022-09-21T11:40:06;1.87;;;1.77;;
7539;SDS011;3811;49.006;12.076;2022-09-21T11:42:47;2.03;;;1.93;;
7539;SDS011;3811;49.006;12.076;2022-09-21T11:45:27;2.63;;;2.10;;
7539;SDS011;3811;49.006;12.076;2022-09-21T11:48:10;3.20;;;2.50;;
7539;SDS011;3811;49.006;12.076;2022-09-21T11:50:45;2.83;;;2.23;;
7539;SDS011;3811;49.006;12.076;2022-09-21T11:53:17;2.80;;;2.13;;
7539;SDS011;3811;49.006;12.076;2022-09-21T11:56:01;4.53;;;2.60;;
7539;SDS011;3811;49.006;12.076;2022-09-21T11:58:36;2.80;;;2.40;;
7539;SDS011;3811;49.006;12.076;2022-09-21T12:01:10;2.47;;;2.27;;
7539;SDS011;3811;49.006;12.076;2022-09-21T12:03:51;2.33;;;2.13;;
7539;SDS011;3811;49.006;12.076;2022-09-21T12:06:31;4.20;;;2.47;;
7539;SDS011;3811;49.006;12.076;2022-09-21T12:09:16;5.20;;;2.10;;
7539;SDS011;3811;49.006;12.076;2022-09-21T12:12:00;2.47;;;2.27;;
7539;SDS011;3811;49.006;12.076;2022-09-21T12:14:33;3.53;;;2.83;;
7539;SDS011;3811;49.006;12.076;2022-09-21T12:17:04;3.10;;;2.80;;
7539;SDS011;3811;49.006;12.076;2022-09-21T12:19:39;3.73;;;2.90;;
7539;SDS011;3811;49.006;12.076;2022-09-21T12:22:08;4.60;;;2.80;;
7539;SDS011;3811;49.006;12.076;2022-09-21T12:24:41;3.87;;;2.70;;
7539;SDS011;3811;49.006;12.076;2022-09-21T12:27:12;3.30;;;2.50;;
7539;SDS011;3811;49.006;12.076;2022-09-21T12:29:46;3.07;;;2.60;;
7539;SDS011;3811;49.006;12.076;2022-09-21T12:32:20;3.60;;;2.50;;
7539;SDS011;3811;49.006;12.076;2022-09-21T12:34:53;4.70;;;2.50;;
7539;SDS011;3811;49.006;12.076;2022-09-21T12:37:24;2.63;;;2.10;;
7539;SDS011;3811;49.006;12.076;2022-09-21T12:39:57;2.23;;;2.03;;
7539;SDS011;3811;49.006;12.076;2022-09-21T12:42:32;2.30;;;2.10;;
7539;SDS011;3811;49.006;12.076;2022-09-21T12:45:06;1.70;;;1.60;;
7539;SDS011;3811;49.006;12.076;2022-09-21T12:47:46;1.30;;;1.30;;
7539;SDS011;3811;49.006;12.076;2022-09-21T12:50:21;1.17;;;1.17;;
7539;SDS011;3811;49.006;12.076;2022-09-21T12:52:52;1.50;;;1.40;;
7539;SDS011;3811;49.006;12.076;2022-09-21T12:55:31;1.80;;;1.70;;
7539;SDS011;3811;49.006;12.076;2022-09-21T12:58:15;1.50;;;1.40;;
7539;SDS011;3811;49.006;12.076;2022-09-21T13:00:53;1.57;;;1.47;;
7539;SDS011;3811;49.006;12.076;2022-09-21T13:03:29;2.00;;;1.73;;
7539;SDS011;3811;49.006;12.076;2022-09-21T13:09:05;1.70;;;1.30;;
7539;SDS011;3811;49.006;12.076;2022-09-21T13:11:47;1.17;;;1.17;;
7539;SDS011;3811;49.006;12.076;2022-09-21T13:14:21;1.47;;;1.10;;
7539;SDS011;3811;49.006;12.076;2022-09-21T13:16:53;1.50;;;1.03;;
7539;SDS011;3811;49.006;12.076;2022-09-21T13:19:23;2.37;;;1.00;;
7539;SDS011;3811;49.006;12.076;2022-09-21T13:24:42;1.63;;;1.40;;
7539;SDS011;3811;49.006;12.076;2022-09-21T13:27:10;1.63;;;1.53;;
7539;SDS011;3811;49.006;12.076;2022-09-21T13:29:38;1.47;;;1.37;;
7539;SDS011;3811;49.006;12.076;2022-09-21T13:38:22;3.07;;;1.50;;
7539;SDS011;3811;49.006;12.076;2022-09-21T13:40:57;1.50;;;1.40;;
7539;SDS011;3811;49.006;12.076;2022-09-21T13:46:44;1.67;;;1.50;;
7539;SDS011;3811;49.006;12.076;2022-09-21T13:49:18;1.30;;;1.20;;
7539;SDS011;3811;49.006;12.076;2022-09-21T13:51:59;1.63;;;1.37;;
7539;SDS011;3811;49.006;12.076;2022-09-21T13:54:28;3.93;;;1.50;;
7539;SDS011;3811;49.006;12.076;2022-09-21T13:57:02;2.50;;;1.60;;
7539;SDS011;3811;49.006;12.076;2022-09-21T13:59:41;1.60;;;1.50;;
7539;SDS011;3811;49.006;12.076;2022-09-21T14:02:20;1.50;;;1.40;;
7539;SDS011;3811;49.006;12.076;2022-09-21T14:05:00;2.03;;;1.55;;
7539;SDS011;3811;49.006;12.076;2022-09-21T14:07:32;2.90;;;1.30;;
7539;SDS011;3811;49.006;12.076;2022-09-21T14:10:02;1.98;;;1.20;;
7539;SDS011;3811;49.006;12.076;2022-09-21T14:12:37;1.90;;;1.40;;
7539;SDS011;3811;49.006;12.076;2022-09-21T14:15:17;1.83;;;1.50;;
7539;SDS011;3811;49.006;12.076;2022-09-21T14:18:08;1.60;;;1.50;;
7539;SDS011;3811;49.006;12.076;2022-09-21T14:26:51;1.42;;;1.33;;
7539;SDS011;3811;49.006;12.076;2022-09-21T14:29:30;2.03;;;1.42;;
7539;SDS011;3811;49.006;12.076;2022-09-21T14:32:09;1.20;;;1.20;;
7539;SDS011;3811;49.006;12.076;2022-09-21T14:34:44;1.52;;;1.42;;
7539;SDS011;3811;49.006;12.076;2022-09-21T14:37:19;1.40;;;1.40;;
7539;SDS011;3811;49.006;12.076;2022-09-21T14:39:53;1.55;;;1.33;;
7539;SDS011;3811;49.006;12.076;2022-09-21T14:42:22;1.55;;;1.45;;
7539;SDS011;3811;49.006;12.076;2022-09-21T14:44:53;1.40;;;1.30;;
7539;SDS011;3811;49.006;12.076;2022-09-21T14:47:34;6.25;;;1.58;;
7539;SDS011;3811;49.006;12.076;2022-09-21T14:50:15;5.33;;;1.57;;
7539;SDS011;3811;49.006;12.076;2022-09-21T14:53:00;1.70;;;1.60;;
7539;SDS011;3811;49.006;12.076;2022-09-21T14:55:49;1.80;;;1.70;;
7539;SDS011;3811;49.006;12.076;2022-09-21T14:58:31;2.00;;;1.80;;
7539;SDS011;3811;49.006;12.076;2022-09-21T15:01:18;1.90;;;1.80;;
7539;SDS011;3811;49.006;12.076;2022-09-21T15:07:06;1.10;;;1.10;;
7539;SDS011;3811;49.006;12.076;2022-09-21T15:10:17;2.53;;;1.30;;
7539;SDS011;3811;49.006;12.076;2022-09-21T15:13:09;1.10;;;1.10;;
7539;SDS011;3811;49.006;12.076;2022-09-21T15:15:45;1.20;;;1.10;;
7539;SDS011;3811;49.006;12.076;2022-09-21T15:18:24;3.00;;;1.20;;
7539;SDS011;3811;49.006;12.076;2022-09-21T15:20:54;1.40;;;1.30;;
7539;SDS011;3811;49.006;12.076;2022-09-21T15:23:28;3.40;;;1.43;;
7539;SDS011;3811;49.006;12.076;2022-09-21T15:25:56;1.47;;;1.37;;
7539;SDS011;3811;49.006;12.076;2022-09-21T15:28:30;1.03;;;1.03;;
7539;SDS011;3811;49.006;12.076;2022-09-21T15:31:02;1.23;;;1.23;;
7539;SDS011;3811;49.006;12.076;2022-09-21T15:33:33;2.17;;;1.40;;
7539;SDS011;3811;49.006;12.076;2022-09-21T15:36:03;1.43;;;1.33;;
7539;SDS011;3811;49.006;12.076;2022-09-21T15:38:35;1.47;;;1.37;;
7539;SDS011;3811;49.006;12.076;2022-09-21T15:41:03;1.07;;;1.07;;
7539;SDS011;3811;49.006;12.076;2022-09-21T15:43:31;1.20;;;1.10;;
7539;SDS011;3811;49.006;12.076;2022-09-21T15:46:00;1.00;;;1.00;;
7539;SDS011;3811;49.006;12.076;2022-09-21T15:48:29;2.00;;;1.20;;
7539;SDS011;3811;49.006;12.076;2022-09-21T15:51:01;1.00;;;1.00;;
7539;SDS011;3811;49.006;12.076;2022-09-21T15:53:34;2.63;;;1.63;;
7539;SDS011;3811;49.006;12.076;2022-09-21T15:56:06;1.30;;;1.20;;
7539;SDS011;3811;49.006;12.076;2022-09-21T15:58:34;1.97;;;1.27;;
7539;SDS011;3811;49.006;12.076;2022-09-21T16:01:02;1.63;;;1.03;;
7539;SDS011;3811;49.006;12.076;2022-09-21T16:03:37;2.30;;;1.10;;
7539;SDS011;3811;49.006;12.076;2022-09-21T16:12:22;1.60;;;1.20;;
7539;SDS011;3811;49.006;12.076;2022-09-21T16:14:58;1.40;;;1.30;;
7539;SDS011;3811;49.006;12.076;2022-09-21T16:17:25;1.87;;;1.47;;
7539;SDS011;3811;49.006;12.076;2022-09-21T16:20:12;3.43;;;2.00;;